Airfield :
LOGIN :

Register | Disclaimer

   EN    FR    IT 

 










Legend :    VFR   Marginal VFR   IFR   Intensive IFR   Very Intensive IFR
Visi :
Ceiling :
>= 8 km
>= 3000ft
5 to 8 km
1000 to 3000 ft
1500m to 5 km
500 to 1000 ft
800 to 1500m
200 to 500 ft
< 800m
< 200 ft
Symbols :   Thunderstorms  Fog  Heavy snow  Heavy precipitations  Wind > 20 kt
SIGMETs :     Misc.  Thunderstorms  Icing  Turbulence  Mountain Waves  Volcanic Ashes






- Airport Elevation : 144 ft
- IATA code : PGF


LFMP - Perpignan

CURRENT METAR :
  • 151400Z AUTO 05015KT 030V090 9999 FEW019/// //////CB 28/22 Q1011 TEMPO TS

EXPIRED METARs :
  • 151330Z AUTO 05014KT 020V080 9999 FEW041/// ///CB 29/22 Q1011 TEMPO TS
  • 151300Z AUTO 02012KT 360V060 9999 SCT019 BKN038 28/22 Q1012 TEMPO TS SCT008 SCT035CB BKN080
  • 151230Z AUTO 03012KT 360V060 9999 BKN017 BKN022 BKN028 28/22 Q1011 TEMPO TS SCT008 SCT035CB BKN080
  • 151200Z AUTO 03011KT 350V060 9999 BKN017 BKN024 28/22 Q1011 NOSIG
  • 151130Z AUTO 03011KT 360V060 9999 SCT015 SCT026 28/22 Q1011 NOSIG
  • 151100Z AUTO 03012KT 360V060 9999 SCT014 BKN020 BKN025 26/21 Q1011 NOSIG
  • 151030Z AUTO 05008KT 010V110 9999 SCT014 BKN023 26/21 Q1011 NOSIG
  • 151000Z AUTO 05008KT 010V080 9999 BKN014 BKN200 26/21 Q1011 BECMG FEW008 BKN016
  • 150930Z AUTO 08007KT 040V110 9999 BKN014 BKN020 BKN029 25/21 Q1011 BECMG FEW008 BKN016

TAF TAF LFMP
Valid from the 15 at 09:00 until the 16 at 09:00 UTC


150800Z 1509/1609 VRB03KT 9999 FEW008 BKN016
BECMG 1512/1514 05010KT SCT018
TEMPO 1514/1520 TS SCT008 SCT035CB BKN080
PROB40
TEMPO 1516/1518 VRB15G25KT 3000 TSRA
BECMG 1520/1522 30010KT CAVOK
BECMG 1523/1601 30015G25KT
ATIS : +33 4 68 63 75 12



MET'MAP, your aeronautical weather chart ! - Copyright ORBIFLY December 2007 - Disclaimer

ORBIFLY MET'MAP TEAM :

Programming & Development : Alexandra Zaïnal
Original concept : Baudouin d'Aumeries
Technical & hardware support : Manuel Goepfert
Assistance : Marc-Olivier Méhu




SOURCES & CREDITS :

   NOAA